createdAt,value
2018-07-08T00:01:30.474Z,39.30
2018-07-08T00:03:59.350Z,39.40
2018-07-08T00:06:28.202Z,39.40
2018-07-08T00:08:57.099Z,39.40
2018-07-08T00:11:25.970Z,39.40
2018-07-08T00:13:54.848Z,39.40
2018-07-08T00:16:23.706Z,39.40
2018-07-08T00:18:52.591Z,39.40
2018-07-08T00:21:21.455Z,39.50
2018-07-08T00:23:50.334Z,39.40
2018-07-08T00:26:19.199Z,39.50
2018-07-08T00:28:48.077Z,40.10
2018-07-08T00:31:16.942Z,39.50
2018-07-08T00:33:45.818Z,39.50
2018-07-08T00:36:14.671Z,39.50
2018-07-08T00:38:43.546Z,39.50
2018-07-08T00:41:12.414Z,39.50
2018-07-08T00:43:41.298Z,39.40
2018-07-08T00:46:10.158Z,39.60
2018-07-08T00:48:39.054Z,39.50
2018-07-08T00:51:07.918Z,39.50
2018-07-08T00:53:36.801Z,39.60
2018-07-08T00:56:05.682Z,39.60
2018-07-08T00:58:34.555Z,39.60
2018-07-08T01:01:03.431Z,39.60
2018-07-08T01:03:32.294Z,39.60
2018-07-08T01:06:01.179Z,39.60
2018-07-08T01:08:30.047Z,39.60
2018-07-08T01:10:58.930Z,39.60
2018-07-08T01:13:27.794Z,39.70
2018-07-08T01:15:56.683Z,39.70
2018-07-08T01:18:25.545Z,39.70
2018-07-08T01:23:23.027Z,40.00
2018-07-08T01:26:03.238Z,39.70
2018-07-08T01:28:32.101Z,39.70
2018-07-08T01:31:01.003Z,39.70
2018-07-08T01:33:29.866Z,39.70
2018-07-08T01:35:58.993Z,39.70
2018-07-08T01:38:27.894Z,39.70
2018-07-08T01:40:57.082Z,39.70
2018-07-08T01:43:25.966Z,39.70
2018-07-08T01:45:54.852Z,39.80
2018-07-08T01:48:23.726Z,39.80
2018-07-08T01:50:52.606Z,39.80
2018-07-08T01:53:21.510Z,39.80
2018-07-08T01:55:50.405Z,39.80
2018-07-08T01:58:19.270Z,39.80
2018-07-08T02:03:16.674Z,39.80
2018-07-08T02:05:45.557Z,39.80
2018-07-08T02:08:15.439Z,39.80
2018-07-08T02:10:44.319Z,39.80
2018-07-08T02:13:13.191Z,39.90
2018-07-08T02:15:42.074Z,39.90
2018-07-08T02:18:10.940Z,39.90
2018-07-08T02:20:39.827Z,39.80
2018-07-08T02:23:08.690Z,39.90
2018-07-08T02:25:37.590Z,39.90
2018-07-08T02:30:35.090Z,39.80
2018-07-08T02:33:03.961Z,39.80
2018-07-08T02:35:32.842Z,39.90
2018-07-08T02:38:01.719Z,39.90
2018-07-08T02:40:30.601Z,39.90
2018-07-08T02:42:59.459Z,39.90
2018-07-08T02:45:28.339Z,39.90
2018-07-08T02:47:57.202Z,40.00
2018-07-08T02:50:26.091Z,40.00
2018-07-08T02:52:54.970Z,40.00
2018-07-08T02:55:23.850Z,40.00
2018-07-08T02:57:52.716Z,40.00
2018-07-08T03:00:21.611Z,40.00
2018-07-08T03:02:50.477Z,40.00
2018-07-08T03:05:19.355Z,40.00
2018-07-08T03:07:48.211Z,40.00
2018-07-08T03:10:17.094Z,40.00
2018-07-08T03:12:45.978Z,40.00
2018-07-08T03:17:43.475Z,40.00
2018-07-08T03:20:12.336Z,40.00
2018-07-08T03:22:41.218Z,40.00
2018-07-08T03:25:10.082Z,40.00
2018-07-08T03:27:38.966Z,40.00
2018-07-08T03:30:07.826Z,40.00
2018-07-08T03:32:36.706Z,40.00
2018-07-08T03:35:05.566Z,40.00
2018-07-08T03:37:34.449Z,40.00
2018-07-08T03:40:03.319Z,40.10
2018-07-08T03:42:32.198Z,40.10
2018-07-08T03:45:01.065Z,40.10
2018-07-08T03:47:30.062Z,40.10
2018-07-08T03:49:58.931Z,40.10
2018-07-08T03:52:27.826Z,40.10
2018-07-08T03:54:57.049Z,40.10
2018-07-08T03:57:25.926Z,40.10
2018-07-08T03:59:54.792Z,40.10
2018-07-08T04:02:23.671Z,40.00
2018-07-08T04:04:52.525Z,40.10
2018-07-08T04:07:21.405Z,40.10
2018-07-08T04:09:50.266Z,40.10
2018-07-08T04:12:19.145Z,40.10
2018-07-08T04:14:48.007Z,40.10
2018-07-08T04:17:16.886Z,40.10
2018-07-08T04:19:45.746Z,40.10
2018-07-08T04:22:14.626Z,40.10
2018-07-08T04:24:43.490Z,40.10
2018-07-08T04:27:12.366Z,40.20
2018-07-08T04:29:41.231Z,40.10
2018-07-08T04:32:10.136Z,40.10
2018-07-08T04:34:38.998Z,40.10
2018-07-08T04:37:07.883Z,40.20
2018-07-08T04:39:36.742Z,40.20
2018-07-08T04:44:34.210Z,40.20
2018-07-08T04:47:03.091Z,40.20
2018-07-08T04:49:31.950Z,40.20
2018-07-08T04:52:00.831Z,40.10
2018-07-08T04:54:29.714Z,40.20
2018-07-08T04:56:58.590Z,40.10
2018-07-08T04:59:27.450Z,40.10
2018-07-08T05:04:24.936Z,40.20
2018-07-08T05:06:53.854Z,40.20
2018-07-08T05:09:22.714Z,40.20
2018-07-08T05:11:51.602Z,40.20
2018-07-08T05:14:20.467Z,40.10
2018-07-08T05:16:49.351Z,40.20
2018-07-08T05:19:18.212Z,40.20
2018-07-08T05:21:47.202Z,40.20
2018-07-08T05:24:16.213Z,40.20
2018-07-08T05:26:45.093Z,40.20
2018-07-08T05:29:13.950Z,40.20
2018-07-08T05:31:42.851Z,40.20
2018-07-08T05:34:11.714Z,40.20
2018-07-08T05:36:40.580Z,40.20
2018-07-08T05:39:09.467Z,40.30
2018-07-08T05:41:38.322Z,40.20
2018-07-08T05:44:07.202Z,40.20
2018-07-08T05:46:36.062Z,40.20
2018-07-08T05:49:04.966Z,40.20
2018-07-08T05:51:33.982Z,40.20
2018-07-08T05:54:02.861Z,40.20
2018-07-08T05:56:32.016Z,40.20
2018-07-08T05:59:00.898Z,40.20
2018-07-08T06:01:29.763Z,40.30
2018-07-08T06:03:58.646Z,40.20
2018-07-08T06:06:27.511Z,40.20
2018-07-08T06:08:56.394Z,40.30
2018-07-08T06:11:25.254Z,40.30
2018-07-08T06:13:54.317Z,40.30
2018-07-08T06:16:23.401Z,40.30
2018-07-08T06:18:52.518Z,40.30
2018-07-08T06:21:21.518Z,40.30
2018-07-08T06:23:50.402Z,40.30
2018-07-08T06:26:19.266Z,40.30
2018-07-08T06:28:48.151Z,40.40
2018-07-08T06:31:17.016Z,40.40
2018-07-08T06:33:45.890Z,40.40
2018-07-08T06:38:43.290Z,40.40
2018-07-08T06:41:12.162Z,40.40
2018-07-08T06:46:09.562Z,40.40
2018-07-08T06:48:38.447Z,40.40
2018-07-08T06:51:07.314Z,40.40
2018-07-08T06:53:36.213Z,40.40
2018-07-08T06:58:33.613Z,40.40
2018-07-08T07:01:02.486Z,40.40
2018-07-08T07:03:31.370Z,40.40
2018-07-08T07:06:00.244Z,40.40
2018-07-08T07:08:29.123Z,40.40
2018-07-08T07:10:57.994Z,40.40
2018-07-08T07:13:26.874Z,40.40
2018-07-08T07:15:55.743Z,40.40
2018-07-08T07:18:24.623Z,40.40
2018-07-08T07:20:53.498Z,40.40
2018-07-08T07:23:22.387Z,40.40
2018-07-08T07:25:51.262Z,40.40
2018-07-08T07:28:20.142Z,40.40
2018-07-08T07:30:49.027Z,40.40
2018-07-08T07:33:17.906Z,40.40
2018-07-08T07:35:46.782Z,40.40
2018-07-08T07:38:15.667Z,40.40
2018-07-08T07:40:44.528Z,40.40
2018-07-08T07:43:13.410Z,40.40
2018-07-08T07:45:42.278Z,40.40
2018-07-08T07:48:11.181Z,40.40
2018-07-08T07:50:40.051Z,40.40
2018-07-08T07:53:08.942Z,40.40
2018-07-08T07:55:37.819Z,40.40
2018-07-08T07:58:06.690Z,40.40
2018-07-08T08:00:35.570Z,40.40
2018-07-08T08:03:04.435Z,40.40
2018-07-08T08:05:33.325Z,40.40
2018-07-08T08:08:02.342Z,40.90
2018-07-08T08:10:31.423Z,40.40
2018-07-08T08:13:00.289Z,40.40
2018-07-08T08:15:29.331Z,40.40
2018-07-08T08:17:58.194Z,40.40
2018-07-08T08:20:27.073Z,40.40
2018-07-08T08:22:55.944Z,40.40
2018-07-08T08:25:24.822Z,40.40
2018-07-08T08:27:53.691Z,40.40
2018-07-08T08:30:22.570Z,40.40
2018-07-08T08:32:51.459Z,40.40
2018-07-08T08:35:20.870Z,40.40
2018-07-08T08:37:52.717Z,40.40
2018-07-08T08:40:24.698Z,40.40
2018-07-08T08:42:53.979Z,40.40
2018-07-08T08:45:24.112Z,40.40
2018-07-08T08:47:52.978Z,40.40
2018-07-08T08:50:21.859Z,40.40
2018-07-08T08:52:50.734Z,40.40
2018-07-08T08:55:19.614Z,40.40
2018-07-08T08:57:48.500Z,40.40
2018-07-08T09:00:18.483Z,40.30
2018-07-08T09:02:47.350Z,40.40
2018-07-08T09:05:16.247Z,40.40
2018-07-08T09:07:45.111Z,40.40
2018-07-08T09:10:13.971Z,40.40
2018-07-08T09:12:42.859Z,40.40
2018-07-08T09:15:11.727Z,40.40
2018-07-08T09:17:40.616Z,40.90
2018-07-08T09:20:09.480Z,40.40
2018-07-08T09:22:38.363Z,40.40
2018-07-08T09:25:07.230Z,40.40
2018-07-08T09:30:04.715Z,40.40
2018-07-08T09:32:33.594Z,40.40
2018-07-08T09:37:31.027Z,40.40
2018-07-08T09:39:59.890Z,40.40
2018-07-08T09:42:28.771Z,40.40
2018-07-08T09:44:57.633Z,40.30
2018-07-08T09:49:55.065Z,40.40
2018-07-08T09:52:23.931Z,40.40
2018-07-08T09:54:52.809Z,40.40
2018-07-08T09:57:21.778Z,40.30
2018-07-08T09:59:50.647Z,40.40
2018-07-08T10:02:19.531Z,40.30
2018-07-08T10:04:48.407Z,40.30
2018-07-08T10:07:17.282Z,40.40
2018-07-08T10:09:46.162Z,40.40
2018-07-08T10:12:15.034Z,40.30
2018-07-08T10:14:43.906Z,40.30
2018-07-08T10:17:12.786Z,40.30
2018-07-08T10:19:41.772Z,40.40
2018-07-08T10:22:10.540Z,40.30
2018-07-08T10:24:39.408Z,40.30
2018-07-08T10:27:27.251Z,40.30
2018-07-08T10:29:56.114Z,40.30
2018-07-08T10:34:53.578Z,40.30
2018-07-08T10:37:22.466Z,40.30
2018-07-08T10:42:19.879Z,40.30
2018-07-08T10:44:48.737Z,40.30
2018-07-08T10:47:17.623Z,40.30
2018-07-08T10:49:46.487Z,40.30
2018-07-08T10:52:15.402Z,40.30
2018-07-08T10:54:44.270Z,40.30
2018-07-08T10:57:13.151Z,40.30
2018-07-08T10:59:42.015Z,40.30
2018-07-08T11:02:10.899Z,40.30
2018-07-08T11:04:39.771Z,40.30
2018-07-08T11:07:08.651Z,40.30
2018-07-08T11:09:37.511Z,40.30
2018-07-08T11:12:06.385Z,40.30
2018-07-08T11:14:35.262Z,40.30
2018-07-08T11:17:04.158Z,40.30
2018-07-08T11:19:33.018Z,40.30
2018-07-08T11:22:01.881Z,40.30
2018-07-08T11:24:30.874Z,40.30
2018-07-08T11:29:28.266Z,40.30
2018-07-08T11:31:57.126Z,40.30
2018-07-08T11:34:26.010Z,40.30
2018-07-08T11:36:54.883Z,40.30
2018-07-08T11:39:23.793Z,40.30
2018-07-08T11:41:53.114Z,40.30
2018-07-08T11:44:21.994Z,40.30
2018-07-08T11:46:50.867Z,40.30
2018-07-08T11:49:19.748Z,40.30
2018-07-08T11:51:48.622Z,40.80
2018-07-08T11:54:17.706Z,40.30
2018-07-08T11:56:46.569Z,40.30
2018-07-08T11:59:15.451Z,40.30
2018-07-08T12:01:44.332Z,40.30
2018-07-08T12:04:13.199Z,40.30
2018-07-08T12:06:42.063Z,40.20
2018-07-08T12:09:11.083Z,40.20
2018-07-08T12:11:39.921Z,40.20
2018-07-08T12:14:08.802Z,40.20
2018-07-08T12:16:37.747Z,40.20
2018-07-08T12:19:06.629Z,40.20
2018-07-08T12:21:35.499Z,40.20
2018-07-08T12:24:04.486Z,40.20
2018-07-08T12:26:33.352Z,40.20
2018-07-08T12:29:02.262Z,40.20
2018-07-08T12:31:31.129Z,40.20
2018-07-08T12:34:00.036Z,40.20
2018-07-08T12:36:28.934Z,40.20
2018-07-08T12:38:57.815Z,40.20
2018-07-08T12:41:26.678Z,40.20
2018-07-08T12:43:55.558Z,40.20
2018-07-08T12:46:24.418Z,40.20
2018-07-08T12:48:53.294Z,40.20
2018-07-08T12:51:22.250Z,40.20
2018-07-08T12:53:51.065Z,40.20
2018-07-08T12:56:19.931Z,40.30
2018-07-08T13:01:17.606Z,40.30
2018-07-08T13:06:15.051Z,40.30
2018-07-08T13:08:43.921Z,40.30
2018-07-08T13:11:12.786Z,40.20
2018-07-08T13:13:41.662Z,40.20
2018-07-08T13:16:10.534Z,40.30
2018-07-08T13:18:39.542Z,40.30
2018-07-08T13:21:08.420Z,40.30
2018-07-08T13:23:37.294Z,40.20
2018-07-08T13:26:06.155Z,40.20
2018-07-08T13:28:35.279Z,40.20
2018-07-08T13:31:04.142Z,40.20
2018-07-08T13:33:33.019Z,40.20
2018-07-08T13:36:01.898Z,40.20
2018-07-08T13:38:30.763Z,40.20
2018-07-08T13:40:59.642Z,40.20
2018-07-08T13:45:57.119Z,40.20
2018-07-08T13:48:25.986Z,40.20
2018-07-08T13:50:54.866Z,40.30
2018-07-08T13:53:23.747Z,40.30
2018-07-08T13:55:52.626Z,40.20
2018-07-08T13:58:21.494Z,40.20
2018-07-08T14:00:50.390Z,40.20
2018-07-08T14:03:19.454Z,40.20
2018-07-08T14:05:48.526Z,40.20
2018-07-08T14:08:17.365Z,40.20
2018-07-08T14:10:46.246Z,40.20
2018-07-08T14:13:15.107Z,40.20
2018-07-08T14:15:44.175Z,40.20
2018-07-08T14:18:13.041Z,40.20
2018-07-08T14:20:42.010Z,40.20
2018-07-08T14:23:10.802Z,40.10
2018-07-08T14:25:39.754Z,40.20
2018-07-08T14:30:37.088Z,40.20
2018-07-08T14:33:05.958Z,40.20
2018-07-08T14:35:34.860Z,40.20
2018-07-08T14:38:03.722Z,40.20
2018-07-08T14:40:32.602Z,40.10
2018-07-08T14:43:01.467Z,40.10
2018-07-08T14:45:30.353Z,40.10
2018-07-08T14:47:59.222Z,40.00
2018-07-08T14:50:28.113Z,40.10
2018-07-08T14:52:56.995Z,40.10
2018-07-08T14:55:25.870Z,40.10
2018-07-08T14:57:54.755Z,40.10
2018-07-08T15:00:23.634Z,40.10
2018-07-08T15:02:52.523Z,40.00
2018-07-08T15:05:21.379Z,40.00
2018-07-08T15:07:50.242Z,40.10
2018-07-08T15:10:19.143Z,40.10
2018-07-08T15:12:47.999Z,40.00
2018-07-08T15:15:16.878Z,40.00
2018-07-08T15:17:45.746Z,40.00
2018-07-08T15:20:14.638Z,40.00
2018-07-08T15:22:43.498Z,39.90
2018-07-08T15:25:12.399Z,40.50
2018-07-08T15:27:41.259Z,39.90
2018-07-08T15:30:10.144Z,39.90
2018-07-08T15:32:39.016Z,39.90
2018-07-08T15:35:07.886Z,39.90
2018-07-08T15:37:36.766Z,39.90
2018-07-08T15:40:05.646Z,39.80
2018-07-08T15:42:34.514Z,39.80
2018-07-08T15:45:03.384Z,39.80
2018-07-08T15:47:32.329Z,39.80
2018-07-08T15:50:01.118Z,39.80
2018-07-08T15:52:30.939Z,39.80
2018-07-08T15:54:59.809Z,40.10
2018-07-08T15:57:28.979Z,39.70
2018-07-08T15:59:57.857Z,39.70
2018-07-08T16:02:26.862Z,39.70
2018-07-08T16:04:55.934Z,39.80
2018-07-08T16:07:24.815Z,39.70
2018-07-08T16:09:53.674Z,39.60
2018-07-08T16:12:22.667Z,39.60
2018-07-08T16:14:51.527Z,39.60
2018-07-08T16:17:20.411Z,39.70
2018-07-08T16:19:49.276Z,39.70
2018-07-08T16:22:18.178Z,39.60
2018-07-08T16:24:47.075Z,39.60
2018-07-08T16:27:16.891Z,39.60
2018-07-08T16:29:45.756Z,39.60
2018-07-08T16:32:14.636Z,39.50
2018-07-08T16:34:43.494Z,39.50
2018-07-08T16:37:12.941Z,39.50
2018-07-08T16:39:41.810Z,39.40
2018-07-08T16:42:10.696Z,39.50
2018-07-08T16:44:39.559Z,39.40
2018-07-08T16:47:08.442Z,39.40
2018-07-08T16:49:37.311Z,39.40
2018-07-08T16:52:06.194Z,39.40
2018-07-08T16:54:35.074Z,40.00
2018-07-08T16:57:03.955Z,39.40
2018-07-08T16:59:32.824Z,39.30
2018-07-08T17:02:01.714Z,39.30
2018-07-08T17:04:30.594Z,39.30
2018-07-08T17:06:59.476Z,39.30
2018-07-08T17:09:28.342Z,39.30
2018-07-08T17:11:57.226Z,39.20
2018-07-08T17:14:26.199Z,39.20
2018-07-08T17:16:55.090Z,39.40
2018-07-08T17:19:23.954Z,39.20
2018-07-08T17:24:22.487Z,39.20
2018-07-08T17:26:53.405Z,39.10
2018-07-08T17:29:22.318Z,39.10
2018-07-08T17:31:52.224Z,39.10
2018-07-08T17:34:21.114Z,38.80
2018-07-08T17:36:49.998Z,38.40
2018-07-08T17:39:18.862Z,38.40
2018-07-08T17:41:47.747Z,38.60
2018-07-08T17:44:16.615Z,38.70
2018-07-08T17:46:45.544Z,38.70
2018-07-08T17:49:14.367Z,38.80
2018-07-08T17:51:43.250Z,38.80
2018-07-08T17:54:12.125Z,38.80
2018-07-08T17:56:41.026Z,38.80
2018-07-08T17:59:09.895Z,38.80
2018-07-08T18:01:38.754Z,38.80
2018-07-08T18:04:07.654Z,38.80
2018-07-08T18:06:36.518Z,38.80
2018-07-08T18:09:06.011Z,38.80
2018-07-08T18:11:35.598Z,38.80
2018-07-08T18:14:04.843Z,38.80
2018-07-08T18:16:33.790Z,38.70
2018-07-08T18:19:02.685Z,38.70
2018-07-08T18:21:31.555Z,38.60
2018-07-08T18:24:00.435Z,38.60
2018-07-08T18:26:29.310Z,38.50
2018-07-08T18:28:58.462Z,38.40
2018-07-08T18:31:27.347Z,38.40
2018-07-08T18:33:56.244Z,38.30
2018-07-08T18:36:25.114Z,38.30
2018-07-08T18:38:54.007Z,38.30
2018-07-08T18:41:22.902Z,38.30
2018-07-08T18:43:52.042Z,38.40
2018-07-08T18:46:21.006Z,38.40
2018-07-08T18:48:49.802Z,38.40
2018-07-08T18:51:18.675Z,38.40
2018-07-08T18:53:47.575Z,38.30
2018-07-08T18:56:16.451Z,38.30
2018-07-08T18:58:45.347Z,38.30
2018-07-08T19:01:14.226Z,38.30
2018-07-08T19:03:43.111Z,38.30
2018-07-08T19:06:11.978Z,38.30
2018-07-08T19:08:40.859Z,38.40
2018-07-08T19:13:38.263Z,38.50
2018-07-08T19:16:07.270Z,38.50
2018-07-08T19:18:36.191Z,38.60
2018-07-08T19:21:05.054Z,38.60
2018-07-08T19:23:33.943Z,38.60
2018-07-08T19:26:02.808Z,38.70
2018-07-08T19:28:31.687Z,38.70
2018-07-08T19:31:00.558Z,38.70
2018-07-08T19:33:29.436Z,38.70
2018-07-08T19:35:58.307Z,38.80
2018-07-08T19:38:27.190Z,39.20
2018-07-08T19:40:56.065Z,39.40
2018-07-08T19:43:24.947Z,38.90
2018-07-08T19:45:53.813Z,38.80
2018-07-08T19:48:22.699Z,38.90
2018-07-08T19:50:51.823Z,38.90
2018-07-08T19:53:20.700Z,38.90
2018-07-08T19:55:49.581Z,39.00
2018-07-08T20:00:47.374Z,39.00
2018-07-08T20:03:16.258Z,39.00
2018-07-08T20:05:45.134Z,39.00
2018-07-08T20:08:14.012Z,39.10
2018-07-08T20:10:42.896Z,39.10
2018-07-08T20:13:11.767Z,39.10
2018-07-08T20:15:40.650Z,39.10
2018-07-08T20:18:09.517Z,39.10
2018-07-08T20:20:38.399Z,39.20
2018-07-08T20:23:07.410Z,39.20
2018-07-08T20:25:36.287Z,39.20
2018-07-08T20:28:05.155Z,39.10
2018-07-08T20:30:34.035Z,39.20
2018-07-08T20:33:02.903Z,39.20
2018-07-08T20:35:31.808Z,39.20
2018-07-08T20:38:00.646Z,39.30
2018-07-08T20:40:29.522Z,39.30
2018-07-08T20:42:58.390Z,39.30
2018-07-08T20:45:27.270Z,39.40
2018-07-08T20:47:56.160Z,39.30
2018-07-08T20:50:25.027Z,39.40
2018-07-08T20:52:53.985Z,39.40
2018-07-08T20:55:22.863Z,39.40
2018-07-08T20:57:51.799Z,39.40
2018-07-08T21:00:20.678Z,39.40
2018-07-08T21:02:49.558Z,39.50
2018-07-08T21:05:18.718Z,39.50
2018-07-08T21:07:47.586Z,39.50
2018-07-08T21:10:16.469Z,39.50
2018-07-08T21:12:45.436Z,39.50
2018-07-08T21:15:14.250Z,39.50
2018-07-08T21:17:43.120Z,39.60
2018-07-08T21:20:12.007Z,39.60
2018-07-08T21:22:40.882Z,39.70
2018-07-08T21:25:09.895Z,39.60
2018-07-08T21:27:38.816Z,39.60
2018-07-08T21:30:07.694Z,40.20
2018-07-08T21:32:36.579Z,39.60
2018-07-08T21:35:05.678Z,39.60
2018-07-08T21:37:34.554Z,39.70
2018-07-08T21:40:03.442Z,39.70
2018-07-08T21:42:32.618Z,39.70
2018-07-08T21:45:01.503Z,39.70
2018-07-08T21:47:30.501Z,39.70
2018-07-08T21:49:59.387Z,39.70
2018-07-08T21:52:28.255Z,39.70
2018-07-08T21:57:25.686Z,39.80
2018-07-08T21:59:54.581Z,39.80
2018-07-08T22:02:23.634Z,39.80
2018-07-08T22:04:52.522Z,39.80
2018-07-08T22:07:28.518Z,39.80
2018-07-08T22:09:57.398Z,39.80
2018-07-08T22:12:26.263Z,39.80
2018-07-08T22:14:55.143Z,39.80
2018-07-08T22:17:24.011Z,39.80
2018-07-08T22:19:52.883Z,39.80
2018-07-08T22:22:21.747Z,39.90
2018-07-08T22:24:50.650Z,39.90
2018-07-08T22:27:19.521Z,39.90
2018-07-08T22:29:48.418Z,39.90
2018-07-08T22:32:17.284Z,39.90
2018-07-08T22:34:46.155Z,39.90
2018-07-08T22:37:15.040Z,39.90
2018-07-08T22:42:12.470Z,40.00
2018-07-08T22:44:41.341Z,40.00
2018-07-08T22:47:10.218Z,40.00
2018-07-08T22:49:39.091Z,40.00
2018-07-08T22:52:07.977Z,40.00
2018-07-08T22:54:36.861Z,40.10
2018-07-08T22:57:05.750Z,40.10
2018-07-08T22:59:46.134Z,40.10
2018-07-08T23:02:26.470Z,40.10
2018-07-08T23:07:23.874Z,40.10
2018-07-08T23:09:52.734Z,40.10
2018-07-08T23:12:21.679Z,40.10
2018-07-08T23:14:50.538Z,40.10
2018-07-08T23:17:19.421Z,40.20
2018-07-08T23:19:48.283Z,40.20
2018-07-08T23:22:19.386Z,40.20
2018-07-08T23:24:48.254Z,40.20
2018-07-08T23:27:17.134Z,40.20
2018-07-08T23:29:45.998Z,40.10
2018-07-08T23:34:43.412Z,40.30
2018-07-08T23:37:12.291Z,40.20
2018-07-08T23:39:41.158Z,40.20
2018-07-08T23:42:10.038Z,40.80
2018-07-08T23:44:38.927Z,40.30
2018-07-08T23:47:07.774Z,40.30
2018-07-08T23:49:36.641Z,40.30
2018-07-08T23:52:05.535Z,40.30
2018-07-08T23:54:34.423Z,40.40
2018-07-08T23:57:03.310Z,40.40
2018-07-08T23:59:32.174Z,40.40
